createdAt,value
2023-05-04T00:02:14.008Z,3.50
2023-05-04T00:05:17.362Z,3.60
2023-05-04T00:08:20.732Z,3.50
2023-05-04T00:11:24.018Z,3.47
2023-05-04T00:14:27.377Z,3.60
2023-05-04T00:17:30.662Z,3.50
2023-05-04T00:20:34.286Z,3.90
2023-05-04T00:23:37.504Z,3.88
2023-05-04T00:26:41.178Z,4.10
2023-05-04T00:29:44.466Z,4.03
2023-05-04T00:32:47.852Z,4.17
2023-05-04T00:35:51.474Z,4.07
2023-05-04T00:38:56.098Z,4.85
2023-05-04T00:42:03.158Z,4.50
2023-05-04T00:45:06.933Z,4.10
2023-05-04T00:48:10.554Z,4.70
2023-05-04T00:51:16.966Z,4.20
2023-05-04T00:54:21.935Z,5.10
2023-05-04T00:57:25.557Z,4.47
2023-05-04T01:00:28.832Z,4.20
2023-05-04T01:03:33.710Z,3.67
2023-05-04T01:06:58.631Z,4.10
2023-05-04T01:10:10.004Z,4.10
2023-05-04T01:13:15.497Z,4.32
2023-05-04T01:16:19.069Z,4.18
2023-05-04T01:19:22.690Z,4.17
2023-05-04T01:22:28.917Z,3.97
2023-05-04T01:25:48.560Z,3.90
2023-05-04T01:29:13.546Z,3.83
2023-05-04T01:32:20.321Z,3.53
2023-05-04T01:35:23.993Z,3.33
2023-05-04T01:38:28.060Z,3.40
2023-05-04T01:41:31.267Z,3.63
2023-05-04T01:44:34.748Z,3.30
2023-05-04T01:47:40.961Z,3.67
2023-05-04T01:50:47.832Z,3.07
2023-05-04T01:53:51.188Z,3.90
2023-05-04T01:56:54.557Z,3.80
2023-05-04T01:59:57.861Z,4.07
2023-05-04T02:03:01.391Z,3.70
2023-05-04T02:06:04.902Z,3.87
2023-05-04T02:09:08.200Z,3.80
2023-05-04T02:12:11.392Z,3.75
2023-05-04T02:15:16.926Z,3.47
2023-05-04T02:18:20.292Z,4.07
2023-05-04T02:21:25.697Z,3.50
2023-05-04T02:24:29.022Z,3.80
2023-05-04T02:27:32.265Z,3.55
2023-05-04T02:30:37.422Z,3.85
2023-05-04T02:33:40.722Z,3.80
2023-05-04T02:36:49.016Z,3.70
2023-05-04T02:39:52.293Z,3.45
2023-05-04T02:42:56.060Z,3.50
2023-05-04T02:45:59.318Z,3.38
2023-05-04T02:49:02.983Z,3.53
2023-05-04T02:52:06.261Z,3.33
2023-05-04T02:55:10.036Z,3.50
2023-05-04T02:58:13.313Z,3.25
2023-05-04T03:01:17.056Z,3.40
2023-05-04T03:04:23.464Z,3.50
2023-05-04T03:07:28.688Z,3.73
2023-05-04T03:10:32.222Z,3.00
2023-05-04T03:13:35.542Z,3.10
2023-05-04T03:16:47.739Z,3.30
2023-05-04T03:19:51.834Z,3.40
2023-05-04T03:22:57.141Z,3.37
2023-05-04T03:26:01.732Z,3.70
2023-05-04T03:29:05.146Z,3.92
2023-05-04T03:32:08.949Z,3.38
2023-05-04T03:35:15.390Z,3.90
2023-05-04T03:38:21.455Z,3.67
2023-05-04T03:41:25.435Z,3.70
2023-05-04T03:44:32.241Z,3.60
2023-05-04T03:47:35.552Z,3.58
2023-05-04T03:50:42.416Z,3.88
2023-05-04T03:53:48.289Z,3.60
2023-05-04T03:56:53.811Z,3.50
2023-05-04T04:00:00.353Z,3.78
2023-05-04T04:03:06.172Z,4.00
2023-05-04T04:06:10.778Z,3.80
2023-05-04T04:09:18.156Z,3.80
2023-05-04T04:12:21.537Z,4.40
2023-05-04T04:15:27.386Z,3.50
2023-05-04T04:18:30.854Z,4.00
2023-05-04T04:21:34.824Z,4.50
2023-05-04T04:24:37.995Z,3.83
2023-05-04T04:27:41.382Z,4.30
2023-05-04T04:30:48.981Z,3.92
2023-05-04T04:33:54.834Z,3.80
2023-05-04T04:36:58.919Z,4.00
2023-05-04T04:40:02.969Z,3.77
2023-05-04T04:43:06.634Z,3.90
2023-05-04T04:46:10.659Z,3.63
2023-05-04T04:49:14.157Z,4.00
2023-05-04T04:52:18.200Z,4.43
2023-05-04T04:55:23.801Z,4.00
2023-05-04T04:58:27.279Z,3.53
2023-05-04T05:01:31.249Z,4.60
2023-05-04T05:04:37.736Z,3.90
2023-05-04T05:07:41.304Z,3.88
2023-05-04T05:10:49.542Z,3.83
2023-05-04T05:13:52.898Z,3.75
2023-05-04T05:16:56.662Z,3.50
2023-05-04T05:19:59.842Z,3.20
2023-05-04T05:23:02.841Z,3.80
2023-05-04T05:26:06.400Z,3.73
2023-05-04T05:29:10.149Z,3.40
2023-05-04T05:32:13.521Z,3.42
2023-05-04T05:35:17.203Z,3.42
2023-05-04T05:38:21.622Z,3.35
2023-05-04T05:41:25.949Z,3.30
2023-05-04T05:44:29.264Z,3.40
2023-05-04T05:47:32.634Z,3.47
2023-05-04T05:50:37.975Z,3.50
2023-05-04T05:53:42.805Z,3.25
2023-05-04T05:56:46.196Z,3.60
2023-05-04T05:59:49.569Z,3.28
2023-05-04T06:02:53.443Z,3.60
2023-05-04T06:05:56.954Z,3.70
2023-05-04T06:09:02.118Z,3.15
2023-05-04T06:12:12.354Z,3.17
2023-05-04T06:15:16.785Z,3.63
2023-05-04T06:18:20.562Z,3.35
2023-05-04T06:21:24.066Z,3.17
2023-05-04T06:24:27.419Z,3.90
2023-05-04T06:27:32.974Z,3.60
2023-05-04T06:30:36.734Z,3.20
2023-05-04T06:33:40.096Z,3.70
2023-05-04T06:36:44.214Z,3.33
2023-05-04T06:39:49.697Z,3.03
2023-05-04T06:42:55.191Z,2.90
2023-05-04T06:46:02.685Z,2.47
2023-05-04T06:49:06.485Z,3.25
2023-05-04T06:52:10.046Z,3.00
2023-05-04T06:55:14.041Z,2.63
2023-05-04T06:58:20.077Z,2.90
2023-05-04T07:01:23.796Z,3.05
2023-05-04T07:04:27.450Z,2.80
2023-05-04T07:07:32.073Z,2.92
2023-05-04T07:10:35.715Z,2.92
2023-05-04T07:13:39.539Z,2.60
2023-05-04T07:16:43.143Z,3.03
2023-05-04T07:19:47.079Z,2.67
2023-05-04T07:22:57.228Z,3.00
2023-05-04T07:26:00.712Z,2.80
2023-05-04T07:29:04.224Z,3.30
2023-05-04T07:32:07.469Z,3.30
2023-05-04T07:35:11.031Z,3.38
2023-05-04T07:38:14.322Z,3.00
2023-05-04T07:41:20.709Z,2.80
2023-05-04T07:44:24.231Z,2.80
2023-05-04T07:47:28.026Z,3.35
2023-05-04T07:50:37.831Z,3.25
2023-05-04T07:53:42.599Z,3.08
2023-05-04T07:56:46.392Z,3.17
2023-05-04T07:59:53.366Z,3.20
2023-05-04T08:02:57.143Z,3.13
2023-05-04T08:06:00.517Z,3.08
2023-05-04T08:09:03.751Z,3.03
2023-05-04T08:12:07.767Z,3.30
2023-05-04T08:15:11.739Z,3.00
2023-05-04T08:18:15.544Z,3.47
2023-05-04T08:21:19.476Z,3.10
2023-05-04T08:24:23.142Z,2.90
2023-05-04T08:27:26.539Z,2.90
2023-05-04T08:30:31.674Z,3.33
2023-05-04T08:33:35.914Z,3.58
2023-05-04T08:36:39.264Z,3.40
2023-05-04T08:39:42.536Z,3.50
2023-05-04T08:42:50.492Z,3.53
2023-05-04T08:45:53.873Z,4.10
2023-05-04T08:48:57.844Z,3.03
2023-05-04T08:52:03.034Z,3.20
2023-05-04T08:55:07.769Z,3.42
2023-05-04T08:58:13.380Z,3.17
2023-05-04T09:01:18.598Z,3.67
2023-05-04T09:04:23.005Z,3.05
2023-05-04T09:07:26.595Z,2.78
2023-05-04T09:10:31.578Z,3.33
2023-05-04T09:13:35.618Z,3.55
2023-05-04T09:16:39.332Z,3.07
2023-05-04T09:19:46.151Z,3.20
2023-05-04T09:23:06.954Z,3.60
2023-05-04T09:26:10.454Z,3.78
2023-05-04T09:29:15.099Z,4.28
2023-05-04T09:32:18.969Z,4.73
2023-05-04T09:35:34.114Z,3.70
2023-05-04T09:38:37.911Z,4.30
2023-05-04T09:41:42.745Z,4.30
2023-05-04T09:44:46.285Z,4.35
2023-05-04T09:47:53.065Z,3.40
2023-05-04T09:50:58.920Z,3.50
2023-05-04T09:54:03.366Z,3.20
2023-05-04T09:57:16.031Z,4.30
2023-05-04T10:00:20.617Z,3.17
2023-05-04T10:03:24.357Z,3.27
2023-05-04T10:06:52.770Z,3.00
2023-05-04T10:10:02.112Z,3.60
2023-05-04T10:13:05.774Z,2.97
2023-05-04T10:16:52.608Z,2.80
2023-05-04T10:20:15.017Z,2.90
2023-05-04T10:24:05.542Z,3.30
2023-05-04T10:27:10.862Z,2.65
2023-05-04T10:30:18.656Z,2.70
2023-05-04T10:33:22.753Z,2.90
2023-05-04T10:36:37.774Z,3.10
2023-05-04T10:39:50.375Z,3.08
2023-05-04T10:42:53.792Z,2.70
2023-05-04T10:45:57.779Z,2.55
2023-05-04T10:49:01.500Z,2.28
2023-05-04T10:52:12.662Z,2.97
2023-05-04T10:55:17.174Z,2.60
2023-05-04T10:58:29.182Z,2.50
2023-05-04T11:01:45.478Z,2.67
2023-05-04T11:05:07.034Z,2.92
2023-05-04T11:08:20.345Z,2.70
2023-05-04T11:11:24.525Z,2.70
2023-05-04T11:14:28.955Z,2.60
2023-05-04T11:17:32.466Z,2.42
2023-05-04T11:20:39.158Z,2.47
2023-05-04T11:23:43.804Z,2.67
2023-05-04T11:26:49.270Z,2.45
2023-05-04T11:30:03.391Z,2.38
2023-05-04T11:33:14.437Z,2.60
2023-05-04T11:36:18.489Z,2.70
2023-05-04T11:39:21.886Z,2.20
2023-05-04T11:42:26.149Z,2.63
2023-05-04T11:45:33.231Z,2.92
2023-05-04T11:48:37.665Z,2.50
2023-05-04T11:51:41.015Z,2.30
2023-05-04T11:54:55.692Z,2.60
2023-05-04T11:58:03.505Z,2.53
2023-05-04T12:01:08.864Z,2.60
2023-05-04T12:04:12.637Z,2.70
2023-05-04T12:07:16.019Z,2.50
2023-05-04T12:10:31.397Z,2.40
2023-05-04T12:13:34.743Z,2.30
2023-05-04T12:16:39.071Z,2.25
2023-05-04T12:19:54.124Z,2.45
2023-05-04T12:22:58.311Z,1.98
2023-05-04T12:26:01.559Z,2.53
2023-05-04T12:29:05.089Z,2.20
2023-05-04T12:32:08.480Z,2.40
2023-05-04T12:35:12.033Z,2.25
2023-05-04T12:38:15.640Z,2.20
2023-05-04T12:41:19.338Z,2.10
2023-05-04T12:44:22.686Z,2.22
2023-05-04T12:47:26.264Z,2.80
2023-05-04T12:50:30.403Z,2.60
2023-05-04T12:53:33.997Z,2.30
2023-05-04T12:56:37.529Z,2.30
2023-05-04T12:59:40.893Z,1.80
2023-05-04T13:02:44.520Z,2.13
2023-05-04T13:05:49.812Z,2.05
2023-05-04T13:08:53.283Z,2.40
2023-05-04T13:11:56.561Z,2.43
2023-05-04T13:15:00.798Z,2.38
2023-05-04T13:18:04.256Z,2.20
2023-05-04T13:21:09.180Z,2.10
2023-05-04T13:24:12.590Z,2.08
2023-05-04T13:27:15.921Z,2.20
2023-05-04T13:30:22.007Z,2.70
2023-05-04T13:33:29.933Z,2.25
2023-05-04T13:36:36.029Z,2.42
2023-05-04T13:39:42.580Z,2.00
2023-05-04T13:42:46.291Z,2.30
2023-05-04T13:45:50.097Z,2.20
2023-05-04T13:48:54.684Z,1.63
2023-05-04T13:52:00.056Z,1.77
2023-05-04T13:55:03.578Z,2.13
2023-05-04T13:58:07.423Z,2.27
2023-05-04T14:01:11.989Z,2.00
2023-05-04T14:04:15.289Z,2.22
2023-05-04T14:07:18.607Z,2.00
2023-05-04T14:10:26.901Z,1.73
2023-05-04T14:13:30.345Z,1.67
2023-05-04T14:16:34.989Z,1.67
2023-05-04T14:19:39.619Z,1.60
2023-05-04T14:22:42.974Z,1.60
2023-05-04T14:25:53.441Z,1.70
2023-05-04T14:28:57.350Z,1.90
2023-05-04T14:32:01.630Z,1.98
2023-05-04T14:35:09.996Z,1.85
2023-05-04T14:38:13.907Z,1.77
2023-05-04T14:41:17.210Z,2.00
2023-05-04T14:44:22.692Z,1.67
2023-05-04T14:47:27.568Z,1.80
2023-05-04T14:50:34.616Z,2.03
2023-05-04T14:53:39.709Z,1.65
2023-05-04T14:56:47.604Z,1.88
2023-05-04T14:59:51.244Z,2.33
2023-05-04T15:02:54.541Z,1.90
2023-05-04T15:05:58.340Z,1.95
2023-05-04T15:09:01.623Z,2.05
2023-05-04T15:12:05.434Z,1.83
2023-05-04T15:15:10.155Z,2.00
2023-05-04T15:18:14.407Z,2.10
2023-05-04T15:21:18.859Z,2.00
2023-05-04T15:24:22.163Z,1.63
2023-05-04T15:27:25.470Z,2.30
2023-05-04T15:30:29.282Z,1.60
2023-05-04T15:33:32.785Z,1.67
2023-05-04T15:36:35.994Z,2.00
2023-05-04T15:39:39.411Z,1.83
2023-05-04T15:42:42.940Z,2.00
2023-05-04T15:45:46.829Z,1.63
2023-05-04T15:48:50.245Z,2.00
2023-05-04T15:51:53.988Z,1.70
2023-05-04T15:55:00.668Z,2.10
2023-05-04T15:58:08.068Z,1.88
2023-05-04T16:01:14.557Z,1.90
2023-05-04T16:04:18.337Z,1.77
2023-05-04T16:07:21.602Z,1.70
2023-05-04T16:10:26.572Z,1.83
2023-05-04T16:13:30.042Z,2.13
2023-05-04T16:16:33.499Z,1.73
2023-05-04T16:19:36.832Z,1.98
2023-05-04T16:22:40.107Z,2.13
2023-05-04T16:25:43.951Z,2.10
2023-05-04T16:28:47.266Z,2.00
2023-05-04T16:31:51.067Z,1.93
2023-05-04T16:34:54.267Z,2.20
2023-05-04T16:37:58.400Z,2.40
2023-05-04T16:41:02.895Z,2.20
2023-05-04T16:44:06.277Z,2.65
2023-05-04T16:47:09.662Z,2.37
2023-05-04T16:50:14.332Z,2.20
2023-05-04T16:53:18.233Z,2.00
2023-05-04T16:56:23.052Z,2.50
2023-05-04T16:59:26.512Z,2.55
2023-05-04T17:02:29.909Z,2.13
2023-05-04T17:05:33.181Z,2.50
2023-05-04T17:08:37.522Z,2.55
2023-05-04T17:11:41.298Z,2.55
2023-05-04T17:14:46.035Z,2.70
2023-05-04T17:17:49.482Z,2.90
2023-05-04T17:20:55.667Z,2.70
2023-05-04T17:23:59.281Z,3.20
2023-05-04T17:27:03.741Z,2.97
2023-05-04T17:30:07.902Z,3.20
2023-05-04T17:33:11.744Z,2.70
2023-05-04T17:36:15.365Z,2.70
2023-05-04T17:39:18.827Z,2.90
2023-05-04T17:42:22.016Z,3.35
2023-05-04T17:45:25.644Z,2.58
2023-05-04T17:48:32.135Z,3.10
2023-05-04T17:51:35.788Z,3.10
2023-05-04T17:54:39.230Z,3.47
2023-05-04T17:57:42.508Z,3.33
2023-05-04T18:00:47.281Z,3.97
2023-05-04T18:03:50.682Z,3.83
2023-05-04T18:06:53.941Z,3.78
2023-05-04T18:09:57.383Z,3.90
2023-05-04T18:13:00.717Z,4.00
2023-05-04T18:16:04.308Z,4.30
2023-05-04T18:19:08.104Z,3.77
2023-05-04T18:22:11.356Z,4.22
2023-05-04T18:25:17.424Z,4.75
2023-05-04T18:28:20.908Z,4.38
2023-05-04T18:31:24.965Z,4.35
2023-05-04T18:34:28.418Z,4.00
2023-05-04T18:37:31.650Z,4.95
2023-05-04T18:40:35.148Z,3.90
2023-05-04T18:43:38.386Z,4.00
2023-05-04T18:46:41.637Z,3.60
2023-05-04T18:49:49.165Z,3.93
2023-05-04T18:52:54.056Z,3.90
2023-05-04T18:56:07.678Z,4.20
2023-05-04T18:59:11.173Z,4.30
2023-05-04T19:02:14.616Z,4.05
2023-05-04T19:05:17.892Z,4.33
2023-05-04T19:08:21.438Z,4.00
2023-05-04T19:11:27.310Z,4.10
2023-05-04T19:14:33.534Z,3.45
2023-05-04T19:17:37.166Z,3.85
2023-05-04T19:20:43.165Z,4.00
2023-05-04T19:23:46.802Z,3.90
2023-05-04T19:26:50.042Z,3.45
2023-05-04T19:29:53.353Z,3.40
2023-05-04T19:32:56.774Z,3.28
2023-05-04T19:36:01.375Z,3.17
2023-05-04T19:39:04.864Z,3.53
2023-05-04T19:42:08.361Z,3.72
2023-05-04T19:45:12.486Z,3.80
2023-05-04T19:48:17.497Z,3.38
2023-05-04T19:51:22.639Z,3.40
2023-05-04T19:54:26.206Z,3.35
2023-05-04T19:57:29.930Z,3.63
2023-05-04T20:00:38.018Z,3.47
2023-05-04T20:03:41.251Z,3.95
2023-05-04T20:06:44.987Z,3.37
2023-05-04T20:09:48.272Z,3.30
2023-05-04T20:12:51.708Z,3.60
2023-05-04T20:15:55.370Z,2.92
2023-05-04T20:19:03.397Z,3.33
2023-05-04T20:22:07.393Z,3.80
2023-05-04T20:25:10.876Z,3.42
2023-05-04T20:28:14.378Z,3.58
2023-05-04T20:31:17.809Z,3.67
2023-05-04T20:34:21.519Z,5.20
2023-05-04T20:37:24.709Z,3.80
2023-05-04T20:40:29.603Z,3.97
2023-05-04T20:43:33.364Z,3.75
2023-05-04T20:46:37.510Z,3.80
2023-05-04T20:49:40.893Z,3.95
2023-05-04T20:52:44.677Z,3.13
2023-05-04T20:55:47.908Z,2.97
2023-05-04T20:58:51.604Z,3.90
2023-05-04T21:01:54.998Z,3.50
2023-05-04T21:04:58.601Z,3.90
2023-05-04T21:08:01.788Z,4.37
2023-05-04T21:11:06.717Z,4.15
2023-05-04T21:14:10.043Z,4.07
2023-05-04T21:17:13.265Z,4.53
2023-05-04T21:20:17.222Z,5.75
2023-05-04T21:23:20.708Z,4.40
2023-05-04T21:26:23.892Z,4.40
2023-05-04T21:29:27.464Z,5.53
2023-05-04T21:32:31.291Z,4.50
2023-05-04T21:35:34.512Z,4.80
2023-05-04T21:38:37.997Z,4.33
2023-05-04T21:41:41.502Z,4.85
2023-05-04T21:44:44.735Z,4.72
2023-05-04T21:47:47.991Z,6.50
2023-05-04T21:50:51.658Z,6.30
2023-05-04T21:53:55.410Z,6.53
2023-05-04T21:56:58.575Z,6.25
2023-05-04T22:00:02.080Z,6.20
2023-05-04T22:03:09.422Z,5.85
2023-05-04T22:06:12.683Z,6.13
2023-05-04T22:09:15.960Z,5.80
2023-05-04T22:12:19.798Z,5.85
2023-05-04T22:15:23.494Z,5.25
2023-05-04T22:18:27.007Z,5.80
2023-05-04T22:21:32.448Z,6.07
2023-05-04T22:24:35.816Z,7.00
2023-05-04T22:27:39.031Z,6.80
2023-05-04T22:30:42.318Z,7.20
2023-05-04T22:33:45.636Z,7.00
2023-05-04T22:36:48.948Z,6.65
2023-05-04T22:39:52.142Z,6.53
2023-05-04T22:42:55.573Z,6.25
2023-05-04T22:45:58.754Z,6.28
2023-05-04T22:49:01.945Z,7.20
2023-05-04T22:52:05.532Z,6.57
2023-05-04T22:55:09.353Z,6.47
2023-05-04T22:58:12.526Z,7.55
2023-05-04T23:01:15.868Z,7.78
2023-05-04T23:04:19.385Z,6.75
2023-05-04T23:07:22.596Z,7.18
2023-05-04T23:10:25.772Z,7.20
2023-05-04T23:13:29.234Z,8.52
2023-05-04T23:16:32.972Z,8.90
2023-05-04T23:19:36.751Z,9.00
2023-05-04T23:22:40.652Z,8.85
2023-05-04T23:25:44.033Z,7.73
2023-05-04T23:28:47.340Z,8.02
2023-05-04T23:31:51.245Z,8.35
2023-05-04T23:34:54.797Z,8.48
2023-05-04T23:37:58.184Z,8.55
2023-05-04T23:41:04.791Z,8.50
2023-05-04T23:44:08.485Z,9.30
2023-05-04T23:47:11.731Z,7.90
2023-05-04T23:50:15.188Z,8.32
2023-05-04T23:53:18.470Z,7.03
2023-05-04T23:56:22.327Z,7.00
2023-05-04T23:59:26.301Z,7.65
